createdAt,value
2018-06-19T00:02:03.515Z,60.34
2018-06-19T00:04:32.023Z,60.57
2018-06-19T00:07:00.745Z,60.61
2018-06-19T00:09:29.304Z,60.33
2018-06-19T00:11:57.848Z,60.33
2018-06-19T00:14:35.661Z,60.94
2018-06-19T00:17:04.017Z,60.65
2018-06-19T00:19:32.693Z,61.24
2018-06-19T00:22:02.519Z,61.18
2018-06-19T00:24:30.952Z,60.96
2018-06-19T00:26:59.511Z,60.91
2018-06-19T00:29:30.971Z,61.58
2018-06-19T00:31:59.436Z,62.00
2018-06-19T00:37:39.106Z,62.24
2018-06-19T00:40:07.476Z,62.40
2018-06-19T00:42:35.837Z,62.53
2018-06-19T00:45:04.772Z,62.12
2018-06-19T00:47:33.053Z,62.12
2018-06-19T00:50:01.685Z,62.21
2018-06-19T00:52:31.495Z,62.26
2018-06-19T00:55:00.250Z,62.33
2018-06-19T00:57:28.906Z,62.64
2018-06-19T00:59:58.366Z,62.68
2018-06-19T01:02:27.050Z,62.34
2018-06-19T01:05:04.880Z,62.22
2018-06-19T01:07:33.270Z,62.64
2018-06-19T01:10:01.617Z,62.87
2018-06-19T01:12:30.003Z,62.85
2018-06-19T01:18:04.859Z,63.09
2018-06-19T01:20:33.172Z,63.44
2018-06-19T01:23:01.642Z,63.35
2018-06-19T01:28:22.841Z,63.18
2018-06-19T01:30:51.194Z,63.62
2018-06-19T01:33:19.528Z,63.33
2018-06-19T01:36:10.695Z,63.67
2018-06-19T01:38:39.012Z,63.69
2018-06-19T01:41:07.291Z,63.81
2018-06-19T01:43:35.674Z,63.64
2018-06-19T01:46:04.019Z,63.84
2018-06-19T01:48:33.104Z,63.61
2018-06-19T01:51:01.421Z,64.04
2018-06-19T01:53:29.737Z,63.75
2018-06-19T01:55:58.148Z,64.38
2018-06-19T01:58:26.509Z,64.53
2018-06-19T02:00:55.182Z,64.40
2018-06-19T02:03:23.622Z,65.09
2018-06-19T02:08:45.061Z,65.09
2018-06-19T02:11:13.815Z,64.79
2018-06-19T02:13:42.185Z,65.40
2018-06-19T02:16:11.494Z,65.29
2018-06-19T02:18:39.944Z,65.74
2018-06-19T02:21:08.258Z,65.53
2018-06-19T02:23:36.626Z,65.94
2018-06-19T02:26:05.090Z,65.40
2018-06-19T02:28:33.690Z,65.90
2018-06-19T02:31:02.064Z,65.62
2018-06-19T02:33:30.385Z,66.04
2018-06-19T02:36:08.361Z,65.67
2018-06-19T02:38:36.748Z,65.36
2018-06-19T02:41:05.043Z,65.28
2018-06-19T02:43:33.360Z,65.72
2018-06-19T02:46:01.788Z,65.85
2018-06-19T02:48:30.359Z,65.05
2018-06-19T02:50:58.751Z,65.29
2018-06-19T02:53:27.107Z,65.25
2018-06-19T02:55:55.528Z,65.45
2018-06-19T02:58:23.793Z,65.27
2018-06-19T03:00:52.133Z,65.49
2018-06-19T03:03:20.722Z,65.74
2018-06-19T03:05:58.544Z,65.36
2018-06-19T03:08:26.870Z,65.26
2018-06-19T03:10:55.208Z,65.44
2018-06-19T03:13:23.654Z,66.24
2018-06-19T03:16:05.744Z,66.06
2018-06-19T03:18:34.011Z,66.60
2018-06-19T03:21:02.345Z,67.15
2018-06-19T03:23:30.734Z,66.78
2018-06-19T03:26:21.804Z,66.80
2018-06-19T03:28:50.086Z,67.20
2018-06-19T03:31:18.682Z,67.07
2018-06-19T03:34:00.750Z,66.86
2018-06-19T03:36:29.069Z,67.28
2018-06-19T03:38:57.430Z,66.85
2018-06-19T03:41:26.207Z,67.19
2018-06-19T03:44:08.472Z,67.43
2018-06-19T03:46:36.815Z,67.52
2018-06-19T03:49:05.380Z,67.38
2018-06-19T03:51:33.702Z,67.76
2018-06-19T03:54:20.804Z,67.58
2018-06-19T03:56:49.122Z,67.88
2018-06-19T03:59:17.489Z,67.91
2018-06-19T04:01:45.918Z,67.87
2018-06-19T04:04:14.670Z,68.28
2018-06-19T04:06:43.120Z,68.46
2018-06-19T04:09:11.816Z,68.03
2018-06-19T04:11:40.115Z,68.37
2018-06-19T04:14:08.438Z,68.26
2018-06-19T04:16:37.106Z,68.34
2018-06-19T04:19:05.456Z,68.51
2018-06-19T04:21:33.740Z,68.07
2018-06-19T04:24:02.032Z,68.25
2018-06-19T04:26:30.444Z,68.09
2018-06-19T04:28:59.180Z,68.07
2018-06-19T04:31:27.638Z,67.97
2018-06-19T04:34:05.457Z,67.24
2018-06-19T04:36:33.838Z,67.56
2018-06-19T04:39:02.128Z,67.57
2018-06-19T04:41:30.759Z,67.00
2018-06-19T04:43:59.186Z,67.01
2018-06-19T04:46:28.354Z,67.42
2018-06-19T04:48:56.650Z,67.45
2018-06-19T04:51:25.090Z,67.68
2018-06-19T04:57:00.496Z,67.32
2018-06-19T04:59:29.427Z,67.49
2018-06-19T05:01:58.543Z,67.30
2018-06-19T05:04:27.757Z,66.84
2018-06-19T05:06:57.204Z,66.56
2018-06-19T05:09:25.958Z,66.19
2018-06-19T05:11:54.636Z,66.20
2018-06-19T05:14:28.182Z,65.51
2018-06-19T05:16:56.914Z,65.39
2018-06-19T05:19:25.474Z,65.37
2018-06-19T05:21:54.206Z,65.48
2018-06-19T05:24:28.398Z,65.40
2018-06-19T05:26:57.065Z,64.79
2018-06-19T05:29:25.444Z,65.44
2018-06-19T05:31:53.990Z,65.14
2018-06-19T05:34:45.174Z,64.76
2018-06-19T05:37:15.670Z,65.28
2018-06-19T05:39:46.676Z,65.30
2018-06-19T05:42:15.103Z,64.93
2018-06-19T05:44:43.914Z,65.15
2018-06-19T05:47:12.372Z,64.60
2018-06-19T05:49:40.732Z,64.43
2018-06-19T05:52:09.519Z,64.45
2018-06-19T05:54:43.114Z,64.95
2018-06-19T05:57:11.580Z,64.36
2018-06-19T05:59:39.990Z,64.52
2018-06-19T06:02:08.648Z,65.17
2018-06-19T06:04:37.165Z,64.97
2018-06-19T06:07:05.787Z,64.73
2018-06-19T06:09:34.382Z,64.46
2018-06-19T06:12:03.008Z,64.16
2018-06-19T06:14:36.550Z,64.03
2018-06-19T06:17:05.003Z,64.03
2018-06-19T06:19:33.539Z,64.75
2018-06-19T06:22:02.085Z,64.40
2018-06-19T06:24:30.642Z,64.42
2018-06-19T06:26:59.142Z,64.20
2018-06-19T06:29:28.046Z,65.09
2018-06-19T06:31:56.547Z,64.33
2018-06-19T06:34:25.108Z,64.56
2018-06-19T06:36:53.853Z,64.01
2018-06-19T06:39:22.326Z,64.73
2018-06-19T06:41:50.959Z,64.99
2018-06-19T06:44:19.814Z,64.77
2018-06-19T06:46:48.484Z,64.48
2018-06-19T06:49:17.353Z,64.25
2018-06-19T06:51:46.165Z,64.52
2018-06-19T06:54:14.901Z,64.42
2018-06-19T06:56:43.664Z,64.10
2018-06-19T06:59:12.364Z,63.44
2018-06-19T07:01:41.180Z,63.34
2018-06-19T07:04:11.015Z,61.75
2018-06-19T07:06:39.865Z,61.30
2018-06-19T07:09:10.168Z,60.57
2018-06-19T07:11:38.912Z,61.10
2018-06-19T07:14:07.872Z,61.28
2018-06-19T07:16:37.631Z,61.43
2018-06-19T07:19:06.339Z,61.08
2018-06-19T07:21:35.200Z,61.62
2018-06-19T07:24:03.702Z,61.44
2018-06-19T07:26:32.394Z,60.91
2018-06-19T07:29:00.918Z,60.99
2018-06-19T07:31:29.538Z,61.33
2018-06-19T07:34:11.970Z,60.99
2018-06-19T07:36:40.760Z,60.48
2018-06-19T07:39:10.058Z,60.09
2018-06-19T07:41:38.728Z,60.11
2018-06-19T07:44:07.539Z,60.75
2018-06-19T07:46:36.006Z,60.45
2018-06-19T07:49:04.580Z,60.86
2018-06-19T07:51:33.020Z,60.79
2018-06-19T07:54:06.538Z,60.75
2018-06-19T07:56:35.004Z,60.72
2018-06-19T07:59:03.402Z,61.17
2018-06-19T08:01:31.841Z,61.17
2018-06-19T08:04:05.395Z,60.92
2018-06-19T08:06:34.132Z,59.45
2018-06-19T08:09:02.565Z,60.01
2018-06-19T08:11:31.620Z,58.95
2018-06-19T08:14:00.474Z,57.77
2018-06-19T08:16:29.528Z,58.08
2018-06-19T08:18:58.391Z,57.17
2018-06-19T08:21:26.986Z,56.91
2018-06-19T08:24:05.184Z,55.86
2018-06-19T08:26:33.668Z,56.09
2018-06-19T08:29:02.295Z,55.00
2018-06-19T08:31:30.970Z,55.49
2018-06-19T08:34:11.992Z,56.18
2018-06-19T08:36:40.899Z,55.43
2018-06-19T08:39:11.652Z,55.41
2018-06-19T08:41:51.923Z,54.93
2018-06-19T08:44:43.090Z,55.56
2018-06-19T08:47:11.682Z,54.82
2018-06-19T08:49:40.194Z,53.26
2018-06-19T08:52:09.054Z,52.74
2018-06-19T08:54:42.640Z,53.70
2018-06-19T08:57:11.472Z,54.01
2018-06-19T08:59:40.010Z,52.57
2018-06-19T09:02:08.404Z,50.00
2018-06-19T09:04:46.417Z,50.06
2018-06-19T09:07:16.889Z,49.55
2018-06-19T09:09:45.344Z,49.24
2018-06-19T09:12:13.961Z,49.82
2018-06-19T09:14:48.345Z,48.82
2018-06-19T09:17:17.014Z,47.75
2018-06-19T09:19:47.006Z,47.47
2018-06-19T09:22:16.573Z,47.33
2018-06-19T09:24:45.174Z,47.07
2018-06-19T09:27:13.713Z,47.16
2018-06-19T09:29:42.259Z,46.24
2018-06-19T09:32:11.049Z,45.75
2018-06-19T09:34:58.204Z,45.70
2018-06-19T09:37:26.721Z,45.01
2018-06-19T09:39:55.162Z,45.41
2018-06-19T09:42:23.542Z,45.58
2018-06-19T09:44:51.890Z,45.13
2018-06-19T09:47:21.476Z,45.81
2018-06-19T09:49:50.699Z,46.26
2018-06-19T09:52:19.721Z,45.96
2018-06-19T09:54:48.706Z,45.83
2018-06-19T09:57:17.254Z,45.33
2018-06-19T09:59:45.908Z,45.51
2018-06-19T10:02:15.005Z,45.58
2018-06-19T10:04:43.548Z,44.90
2018-06-19T10:07:12.128Z,44.81
2018-06-19T10:09:41.080Z,45.21
2018-06-19T10:12:09.883Z,44.70
2018-06-19T10:14:38.488Z,44.83
2018-06-19T10:17:07.132Z,45.04
2018-06-19T10:19:35.831Z,45.01
2018-06-19T10:22:04.535Z,45.02
2018-06-19T10:24:52.076Z,45.61
2018-06-19T10:27:20.842Z,44.48
2018-06-19T10:29:49.734Z,43.82
2018-06-19T10:32:18.842Z,44.56
2018-06-19T10:34:47.816Z,45.18
2018-06-19T10:37:19.192Z,44.57
2018-06-19T10:39:47.950Z,44.30
2018-06-19T10:42:16.472Z,45.00
2018-06-19T10:44:44.998Z,44.89
2018-06-19T10:47:14.125Z,44.68
2018-06-19T10:49:43.082Z,44.28
2018-06-19T10:52:11.685Z,43.99
2018-06-19T10:54:45.340Z,43.72
2018-06-19T10:57:13.806Z,44.43
2018-06-19T10:59:55.274Z,43.86
2018-06-19T11:02:24.553Z,43.54
2018-06-19T11:04:53.117Z,43.30
2018-06-19T11:07:25.909Z,43.00
2018-06-19T11:09:54.317Z,43.11
2018-06-19T11:12:26.276Z,43.51
2018-06-19T11:14:56.580Z,42.29
2018-06-19T11:17:26.688Z,42.85
2018-06-19T11:19:58.037Z,42.52
2018-06-19T11:22:28.113Z,43.30
2018-06-19T11:25:00.420Z,43.43
2018-06-19T11:27:29.946Z,43.26
2018-06-19T11:29:58.368Z,42.92
2018-06-19T11:32:31.156Z,42.96
2018-06-19T11:35:13.526Z,43.04
2018-06-19T11:37:42.164Z,43.38
2018-06-19T11:40:14.210Z,43.71
2018-06-19T11:42:43.584Z,44.51
2018-06-19T11:45:13.770Z,43.93
2018-06-19T11:47:43.221Z,43.51
2018-06-19T11:50:11.578Z,44.14
2018-06-19T11:52:40.356Z,43.42
2018-06-19T11:55:08.932Z,43.52
2018-06-19T11:57:37.645Z,43.28
2018-06-19T12:00:06.291Z,44.07
2018-06-19T12:02:45.742Z,43.55
2018-06-19T12:05:19.618Z,43.75
2018-06-19T12:07:48.890Z,43.91
2018-06-19T12:10:17.382Z,43.49
2018-06-19T12:12:45.874Z,44.04
2018-06-19T12:15:14.378Z,44.15
2018-06-19T12:17:42.834Z,43.87
2018-06-19T12:20:11.545Z,44.09
2018-06-19T12:22:40.240Z,43.82
2018-06-19T12:25:09.066Z,44.78
2018-06-19T12:27:37.922Z,44.44
2018-06-19T12:30:06.660Z,44.61
2018-06-19T12:32:35.185Z,44.51
2018-06-19T12:35:03.964Z,44.37
2018-06-19T12:37:32.772Z,44.85
2018-06-19T12:40:01.343Z,44.99
2018-06-19T12:42:29.815Z,45.66
2018-06-19T12:44:58.542Z,44.94
2018-06-19T12:47:26.969Z,45.83
2018-06-19T12:50:33.934Z,45.32
2018-06-19T12:53:14.481Z,46.03
2018-06-19T12:55:59.771Z,45.98
2018-06-19T12:58:28.248Z,45.84
2018-06-19T13:00:56.834Z,46.57
2018-06-19T13:03:37.162Z,46.16
2018-06-19T13:06:22.190Z,46.79
2018-06-19T13:08:51.383Z,46.10
2018-06-19T13:11:20.053Z,46.17
2018-06-19T13:14:00.114Z,46.01
2018-06-19T13:16:39.700Z,45.80
2018-06-19T13:19:23.654Z,45.28
2018-06-19T13:21:52.361Z,45.34
2018-06-19T13:24:21.540Z,46.41
2018-06-19T13:26:50.114Z,46.33
2018-06-19T13:29:41.202Z,46.00
2018-06-19T13:32:10.691Z,46.61
2018-06-19T13:34:45.354Z,46.10
2018-06-19T13:37:14.177Z,46.45
2018-06-19T13:39:43.160Z,46.32
2018-06-19T13:43:21.440Z,46.53
2018-06-19T13:45:49.966Z,46.58
2018-06-19T13:48:18.868Z,46.71
2018-06-19T13:50:47.672Z,46.68
2018-06-19T13:53:16.359Z,46.55
2018-06-19T13:57:59.028Z,46.99
2018-06-19T14:00:27.494Z,47.06
2018-06-19T14:02:56.073Z,46.98
2018-06-19T14:05:24.630Z,47.25
2018-06-19T14:08:09.125Z,47.43
2018-06-19T14:10:48.884Z,47.64
2018-06-19T14:13:17.934Z,48.09
2018-06-19T14:15:55.894Z,48.29
2018-06-19T14:18:24.384Z,48.31
2018-06-19T14:20:52.701Z,47.82
2018-06-19T14:23:21.152Z,47.99
2018-06-19T14:25:49.742Z,48.23
2018-06-19T14:28:18.907Z,48.67
2018-06-19T14:30:48.001Z,48.43
2018-06-19T14:33:16.658Z,49.00
2018-06-19T14:35:45.410Z,49.32
2018-06-19T14:38:14.921Z,49.17
2018-06-19T14:40:43.894Z,49.25
2018-06-19T14:43:12.710Z,49.24
2018-06-19T14:45:59.937Z,49.28
2018-06-19T14:48:28.562Z,48.71
2018-06-19T14:50:57.169Z,49.61
2018-06-19T14:53:25.962Z,49.69
2018-06-19T14:55:55.030Z,49.94
2018-06-19T14:58:23.531Z,49.96
2018-06-19T15:00:52.095Z,49.74
2018-06-19T15:03:20.879Z,50.02
2018-06-19T15:05:58.708Z,49.80
2018-06-19T15:08:27.349Z,50.57
2018-06-19T15:10:56.465Z,50.32
2018-06-19T15:13:25.428Z,50.31
2018-06-19T15:15:54.020Z,50.28
2018-06-19T15:18:22.836Z,49.97
2018-06-19T15:20:51.434Z,50.15
2018-06-19T15:23:20.214Z,50.46
2018-06-19T15:26:07.341Z,50.41
2018-06-19T15:28:35.754Z,50.80
2018-06-19T15:31:04.305Z,51.11
2018-06-19T15:33:33.032Z,50.85
2018-06-19T15:36:01.544Z,51.15
2018-06-19T15:38:30.091Z,50.91
2018-06-19T15:40:59.707Z,50.55
2018-06-19T15:43:29.135Z,51.18
2018-06-19T15:45:57.870Z,50.58
2018-06-19T15:48:27.291Z,50.76
2018-06-19T15:50:57.319Z,51.65
2018-06-19T15:53:26.503Z,51.57
2018-06-19T15:56:08.960Z,50.92
2018-06-19T15:58:38.959Z,50.85
2018-06-19T16:01:08.331Z,50.95
2018-06-19T16:03:38.848Z,51.18
2018-06-19T16:06:07.647Z,51.77
2018-06-19T16:08:36.244Z,51.92
2018-06-19T16:11:05.927Z,51.37
2018-06-19T16:13:35.263Z,51.58
2018-06-19T16:16:04.354Z,51.49
2018-06-19T16:18:33.279Z,51.90
2018-06-19T16:21:01.845Z,51.35
2018-06-19T16:23:30.311Z,51.75
2018-06-19T16:25:59.216Z,51.73
2018-06-19T16:28:28.307Z,51.91
2018-06-19T16:30:57.100Z,51.87
2018-06-19T16:33:26.228Z,51.83
2018-06-19T16:35:55.598Z,51.86
2018-06-19T16:38:24.173Z,52.39
2018-06-19T16:40:53.516Z,52.55
2018-06-19T16:43:22.105Z,51.98
2018-06-19T16:46:00.276Z,52.73
2018-06-19T16:48:28.921Z,52.41
2018-06-19T16:50:57.477Z,53.10
2018-06-19T16:53:26.046Z,52.99
2018-06-19T16:56:04.141Z,52.41
2018-06-19T16:58:32.769Z,52.55
2018-06-19T17:01:01.240Z,52.55
2018-06-19T17:03:29.978Z,53.05
2018-06-19T17:05:58.592Z,53.12
2018-06-19T17:08:27.088Z,52.77
2018-06-19T17:10:55.714Z,52.89
2018-06-19T17:13:24.371Z,52.84
2018-06-19T17:15:58.170Z,53.19
2018-06-19T17:18:26.961Z,53.00
2018-06-19T17:20:57.177Z,53.66
2018-06-19T17:23:26.209Z,53.13
2018-06-19T17:25:57.084Z,53.14
2018-06-19T17:28:25.663Z,53.48
2018-06-19T17:30:54.971Z,53.78
2018-06-19T17:33:24.863Z,53.78
2018-06-19T17:35:54.423Z,53.59
2018-06-19T17:38:23.105Z,53.65
2018-06-19T17:40:52.033Z,53.73
2018-06-19T17:43:21.890Z,53.50
2018-06-19T17:45:50.597Z,53.93
2018-06-19T17:48:19.111Z,54.17
2018-06-19T17:50:48.541Z,53.50
2018-06-19T17:53:17.367Z,53.81
2018-06-19T17:55:46.257Z,53.98
2018-06-19T17:58:14.929Z,54.24
2018-06-19T18:00:43.538Z,53.86
2018-06-19T18:03:12.477Z,54.40
2018-06-19T18:05:41.552Z,54.61
2018-06-19T18:08:10.231Z,54.64
2018-06-19T18:10:38.882Z,55.43
2018-06-19T18:13:07.628Z,55.01
2018-06-19T18:15:36.447Z,55.33
2018-06-19T18:18:05.085Z,55.38
2018-06-19T18:20:33.884Z,55.23
2018-06-19T18:23:02.567Z,55.70
2018-06-19T18:25:31.390Z,55.74
2018-06-19T18:28:00.276Z,54.82
2018-06-19T18:30:28.909Z,54.82
2018-06-19T18:32:57.649Z,55.54
2018-06-19T18:35:27.880Z,54.98
2018-06-19T18:37:58.714Z,55.11
2018-06-19T18:40:29.217Z,55.06
2018-06-19T18:42:57.811Z,55.72
2018-06-19T18:45:26.569Z,55.60
2018-06-19T18:47:55.775Z,54.61
2018-06-19T18:50:25.273Z,54.68
2018-06-19T18:52:53.730Z,55.50
2018-06-19T18:55:22.316Z,55.68
2018-06-19T18:57:51.105Z,55.17
2018-06-19T19:00:19.660Z,55.33
2018-06-19T19:02:48.690Z,55.52
2018-06-19T19:05:17.473Z,56.04
2018-06-19T19:07:46.487Z,56.08
2018-06-19T19:10:20.464Z,55.71
2018-06-19T19:12:48.938Z,55.75
2018-06-19T19:15:22.869Z,56.22
2018-06-19T19:17:56.821Z,55.94
2018-06-19T19:20:25.953Z,56.65
2018-06-19T19:22:54.445Z,56.28
2018-06-19T19:25:28.371Z,56.94
2018-06-19T19:28:02.266Z,57.07
2018-06-19T19:30:31.948Z,57.06
2018-06-19T19:33:00.656Z,57.16
2018-06-19T19:35:29.407Z,56.85
2018-06-19T19:38:02.954Z,56.92
2018-06-19T19:40:31.470Z,57.03
2018-06-19T19:43:00.334Z,57.35
2018-06-19T19:45:51.467Z,57.25
2018-06-19T19:48:25.435Z,57.29
2018-06-19T19:50:54.623Z,57.27
2018-06-19T19:53:23.269Z,57.68
2018-06-19T19:56:06.549Z,57.53
2018-06-19T19:58:40.463Z,57.02
2018-06-19T20:01:09.052Z,56.76
2018-06-19T20:03:37.521Z,57.53
2018-06-19T20:06:06.131Z,57.11
2018-06-19T20:08:34.621Z,57.71
2018-06-19T20:11:03.737Z,58.02
2018-06-19T20:13:32.490Z,57.34
2018-06-19T20:16:10.751Z,57.41
2018-06-19T20:18:39.289Z,58.08
2018-06-19T20:21:09.032Z,57.88
2018-06-19T20:23:37.775Z,58.24
2018-06-19T20:26:06.371Z,58.35
2018-06-19T20:28:34.851Z,58.28
2018-06-19T20:31:03.640Z,58.44
2018-06-19T20:33:32.382Z,58.48
2018-06-19T20:36:10.338Z,58.46
2018-06-19T20:38:39.001Z,58.95
2018-06-19T20:41:07.777Z,59.15
2018-06-19T20:43:36.501Z,59.18
2018-06-19T20:46:05.682Z,59.59
2018-06-19T20:48:34.272Z,58.91
2018-06-19T20:51:02.880Z,59.55
2018-06-19T20:53:31.552Z,59.45
2018-06-19T20:56:05.304Z,59.76
2018-06-19T20:58:33.987Z,59.73
2018-06-19T21:01:02.493Z,60.02
2018-06-19T21:03:31.231Z,59.83
2018-06-19T21:06:09.793Z,60.59
2018-06-19T21:08:41.571Z,60.11
2018-06-19T21:11:11.882Z,60.33
2018-06-19T21:13:40.361Z,60.48
2018-06-19T21:16:09.603Z,60.74
2018-06-19T21:18:38.441Z,60.85
2018-06-19T21:21:07.081Z,61.57
2018-06-19T21:23:35.556Z,61.66
2018-06-19T21:26:04.794Z,61.85
2018-06-19T21:28:37.006Z,62.07
2018-06-19T21:31:05.669Z,61.42
2018-06-19T21:33:34.180Z,61.50
2018-06-19T21:36:12.319Z,62.19
2018-06-19T21:38:41.659Z,62.08
2018-06-19T21:41:10.260Z,62.00
2018-06-19T21:43:38.764Z,62.58
2018-06-19T21:46:07.213Z,62.34
2018-06-19T21:48:35.623Z,62.80
2018-06-19T21:51:04.063Z,62.68
2018-06-19T21:53:32.397Z,62.91
2018-06-19T21:56:02.107Z,63.18
2018-06-19T21:58:30.452Z,63.20
2018-06-19T22:00:58.828Z,63.21
2018-06-19T22:03:27.381Z,63.19
2018-06-19T22:05:55.893Z,63.02
2018-06-19T22:08:28.437Z,63.09
2018-06-19T22:10:56.779Z,63.69
2018-06-19T22:13:25.541Z,63.76
2018-06-19T22:15:53.989Z,63.35
2018-06-19T22:18:22.522Z,63.48
2018-06-19T22:20:50.927Z,63.54
2018-06-19T22:23:19.360Z,64.21
2018-06-19T22:25:52.882Z,63.78
2018-06-19T22:28:21.338Z,64.33
2018-06-19T22:30:49.712Z,64.03
2018-06-19T22:33:18.203Z,64.69
2018-06-19T22:35:46.886Z,65.00
2018-06-19T22:38:16.294Z,64.95
2018-06-19T22:40:44.956Z,64.69
2018-06-19T22:43:13.930Z,65.57
2018-06-19T22:45:42.689Z,65.36
2018-06-19T22:48:11.081Z,65.72
2018-06-19T22:50:40.996Z,66.23
2018-06-19T22:53:10.113Z,66.47
2018-06-19T22:55:39.522Z,66.93
2018-06-19T22:58:07.888Z,66.42
2018-06-19T23:00:36.291Z,67.02
2018-06-19T23:03:05.676Z,66.95
2018-06-19T23:05:56.756Z,66.80
2018-06-19T23:08:25.264Z,66.51
2018-06-19T23:10:53.986Z,66.12
2018-06-19T23:13:22.675Z,66.48
2018-06-19T23:15:56.775Z,66.12
2018-06-19T23:18:25.165Z,65.60
2018-06-19T23:20:53.919Z,66.16
2018-06-19T23:23:22.507Z,66.26
2018-06-19T23:28:44.093Z,65.94
2018-06-19T23:31:12.840Z,66.41
2018-06-19T23:33:41.804Z,66.58
2018-06-19T23:36:10.648Z,66.09
2018-06-19T23:38:39.313Z,65.94
2018-06-19T23:41:07.968Z,66.64
2018-06-19T23:43:36.254Z,66.18
2018-06-19T23:46:18.392Z,66.42
2018-06-19T23:48:46.947Z,66.41
2018-06-19T23:51:15.253Z,66.36
2018-06-19T23:53:44.116Z,66.15
2018-06-19T23:56:12.708Z,65.97
2018-06-19T23:58:41.303Z,66.34
